createdAt,value
2023-03-24T00:00:34.381Z,99293.00
2023-03-24T00:03:02.658Z,99286.00
2023-03-24T00:05:30.646Z,99277.00
2023-03-24T00:08:02.217Z,99295.00
2023-03-24T00:10:34.451Z,99293.00
2023-03-24T00:13:01.740Z,99299.00
2023-03-24T00:15:29.202Z,99291.00
2023-03-24T00:17:58.027Z,99297.00
2023-03-24T00:20:26.215Z,99294.00
2023-03-24T00:22:59.212Z,99304.00
2023-03-24T00:25:36.539Z,99294.00
2023-03-24T00:28:07.175Z,99290.00
2023-03-24T00:30:35.174Z,99293.00
2023-03-24T00:33:02.484Z,99288.00
2023-03-24T00:35:29.679Z,99289.00
2023-03-24T00:37:56.775Z,99297.00
2023-03-24T00:40:25.010Z,99288.00
2023-03-24T00:42:51.910Z,99290.00
2023-03-24T00:45:23.449Z,99294.00
2023-03-24T00:47:54.490Z,99298.00
2023-03-24T00:50:26.489Z,99293.00
2023-03-24T00:52:55.439Z,99300.00
2023-03-24T00:55:23.324Z,99306.00
2023-03-24T00:57:51.241Z,99305.00
2023-03-24T01:00:25.546Z,99307.00
2023-03-24T01:02:56.237Z,99308.00
2023-03-24T01:05:30.688Z,99311.00
2023-03-24T01:08:03.635Z,99304.00
2023-03-24T01:10:34.323Z,99306.00
2023-03-24T01:13:03.975Z,99282.00
2023-03-24T01:15:34.407Z,99307.00
2023-03-24T01:18:02.364Z,99310.00
2023-03-24T01:20:34.102Z,99308.00
2023-03-24T01:23:05.673Z,99297.00
2023-03-24T01:25:35.976Z,99311.00
2023-03-24T01:28:03.659Z,99273.00
2023-03-24T01:30:31.657Z,99297.00
2023-03-24T01:32:58.634Z,99290.00
2023-03-24T01:35:29.387Z,99291.00
2023-03-24T01:37:57.749Z,99284.00
2023-03-24T01:40:30.407Z,99293.00
2023-03-24T01:42:58.564Z,99286.00
2023-03-24T01:45:40.642Z,99280.00
2023-03-24T01:48:16.993Z,99287.00
2023-03-24T01:50:52.511Z,99287.00
2023-03-24T01:53:20.767Z,99289.00
2023-03-24T01:55:49.018Z,99297.00
2023-03-24T01:58:17.671Z,99289.00
2023-03-24T02:00:45.406Z,99285.00
2023-03-24T02:03:20.965Z,99278.00
2023-03-24T02:05:53.430Z,99288.00
2023-03-24T02:08:40.379Z,99282.00
2023-03-24T02:11:08.032Z,99274.00
2023-03-24T02:13:34.979Z,99286.00
2023-03-24T02:16:27.131Z,99281.00
2023-03-24T02:19:38.226Z,99276.00
2023-03-24T02:22:34.358Z,99268.00
2023-03-24T02:25:53.439Z,99278.00
2023-03-24T02:29:07.369Z,99281.00
2023-03-24T02:31:48.491Z,99273.00
2023-03-24T02:35:02.609Z,99265.00
2023-03-24T02:37:37.614Z,99261.00
2023-03-24T02:40:13.429Z,99257.00
2023-03-24T02:42:55.277Z,99257.00
2023-03-24T02:45:45.042Z,99258.00
2023-03-24T02:48:24.672Z,99260.00
2023-03-24T02:51:25.418Z,99254.00
2023-03-24T02:54:16.343Z,99257.00
2023-03-24T02:56:54.330Z,99252.00
2023-03-24T02:59:48.177Z,99254.00
2023-03-24T03:02:23.426Z,99260.00
2023-03-24T03:05:05.178Z,99261.00
2023-03-24T03:07:37.362Z,99262.00
2023-03-24T03:10:13.561Z,99260.00
2023-03-24T03:12:44.253Z,99260.00
2023-03-24T03:15:25.873Z,99252.00
2023-03-24T03:18:06.042Z,99261.00
2023-03-24T03:20:42.803Z,99259.00
2023-03-24T03:23:15.702Z,99219.00
2023-03-24T03:25:50.933Z,99252.00
2023-03-24T03:28:25.777Z,99239.00
2023-03-24T03:31:01.776Z,99234.00
2023-03-24T03:33:46.646Z,99223.00
2023-03-24T03:36:46.162Z,99225.00
2023-03-24T03:39:24.214Z,99223.00
2023-03-24T03:41:51.254Z,99219.00
2023-03-24T03:44:18.169Z,99221.00
2023-03-24T03:46:45.292Z,99223.00
2023-03-24T03:49:12.292Z,99235.00
2023-03-24T03:51:40.010Z,99225.00
2023-03-24T03:54:12.485Z,99228.00
2023-03-24T03:56:42.332Z,99219.00
2023-03-24T03:59:33.969Z,99223.00
2023-03-24T04:02:26.761Z,99215.00
2023-03-24T04:05:19.309Z,99225.00
2023-03-24T04:08:25.635Z,99223.00
2023-03-24T04:11:33.605Z,99209.00
2023-03-24T04:14:31.113Z,99209.00
2023-03-24T04:17:23.218Z,99200.00
2023-03-24T04:20:14.931Z,99195.00
2023-03-24T04:22:56.699Z,99192.00
2023-03-24T04:26:17.671Z,99177.00
2023-03-24T04:29:20.603Z,99171.00
2023-03-24T04:31:56.162Z,99180.00
2023-03-24T04:34:33.731Z,99165.00
2023-03-24T04:37:17.938Z,99159.00
2023-03-24T04:39:49.757Z,99159.00
2023-03-24T04:42:26.566Z,99174.00
2023-03-24T04:44:53.603Z,99171.00
2023-03-24T04:47:24.204Z,99179.00
2023-03-24T04:49:51.069Z,99163.00
2023-03-24T04:52:18.163Z,99152.00
2023-03-24T04:54:45.451Z,99152.00
2023-03-24T04:57:12.257Z,99150.00
2023-03-24T04:59:40.454Z,99155.00
2023-03-24T05:02:07.460Z,99147.00
2023-03-24T05:04:37.254Z,99135.00
2023-03-24T05:07:05.073Z,99139.00
2023-03-24T05:09:32.009Z,99142.00
2023-03-24T05:12:00.459Z,99128.00
2023-03-24T05:14:28.626Z,99121.00
2023-03-24T05:16:55.743Z,99132.00
2023-03-24T05:19:22.585Z,99128.00
2023-03-24T05:21:49.547Z,99127.00
2023-03-24T05:24:16.386Z,99119.00
2023-03-24T05:26:43.314Z,99106.00
2023-03-24T05:29:10.302Z,99108.00
2023-03-24T05:31:37.185Z,99103.00
2023-03-24T05:34:04.016Z,99093.00
2023-03-24T05:36:31.265Z,99098.00
2023-03-24T05:38:58.209Z,99091.00
2023-03-24T05:41:25.150Z,99090.00
2023-03-24T05:43:52.027Z,99085.00
2023-03-24T05:46:18.972Z,99074.00
2023-03-24T05:48:46.884Z,99085.00
2023-03-24T05:51:13.800Z,99087.00
2023-03-24T05:53:40.790Z,99077.00
2023-03-24T05:56:11.770Z,99090.00
2023-03-24T05:58:39.312Z,99088.00
2023-03-24T06:01:10.306Z,99081.00
2023-03-24T06:03:41.195Z,99076.00
2023-03-24T06:06:14.759Z,99072.00
2023-03-24T06:08:41.792Z,99040.00
2023-03-24T06:11:08.640Z,99069.00
2023-03-24T06:13:36.359Z,99079.00
2023-03-24T06:16:03.932Z,99068.00
2023-03-24T06:18:32.043Z,99064.00
2023-03-24T06:20:59.635Z,99057.00
2023-03-24T06:23:28.800Z,99065.00
2023-03-24T06:25:58.968Z,99064.00
2023-03-24T06:28:26.237Z,99064.00
2023-03-24T06:30:53.163Z,99064.00
2023-03-24T06:33:22.157Z,99060.00
2023-03-24T06:35:49.062Z,99048.00
2023-03-24T06:38:16.133Z,99031.00
2023-03-24T06:40:43.039Z,99014.00
2023-03-24T06:43:09.924Z,99040.00
2023-03-24T06:45:39.359Z,99043.00
2023-03-24T06:48:06.725Z,99044.00
2023-03-24T06:50:35.466Z,99034.00
2023-03-24T06:53:02.795Z,99028.00
2023-03-24T06:55:29.600Z,99028.00
2023-03-24T06:57:56.847Z,99019.00
2023-03-24T07:00:23.703Z,99016.00
2023-03-24T07:02:50.616Z,99014.00
2023-03-24T07:05:17.610Z,99010.00
2023-03-24T07:10:14.656Z,99007.00
2023-03-24T07:12:42.109Z,98992.00
2023-03-24T07:15:09.698Z,98990.00
2023-03-24T07:17:36.622Z,98995.00
2023-03-24T07:20:08.258Z,98989.00
2023-03-24T07:22:36.994Z,98991.00
2023-03-24T07:25:06.397Z,98968.00
2023-03-24T07:27:34.547Z,98977.00
2023-03-24T07:30:02.829Z,98978.00
2023-03-24T07:32:34.661Z,98974.00
2023-03-24T07:35:02.511Z,98970.00
2023-03-24T07:37:29.409Z,98969.00
2023-03-24T07:39:56.373Z,98966.00
2023-03-24T07:42:23.213Z,98967.00
2023-03-24T07:44:50.514Z,98968.00
2023-03-24T07:47:18.453Z,98958.00
2023-03-24T07:49:46.248Z,98956.00
2023-03-24T07:52:15.364Z,98952.00
2023-03-24T07:54:42.211Z,98947.00
2023-03-24T07:57:11.098Z,98948.00
2023-03-24T07:59:38.393Z,98931.00
2023-03-24T08:02:05.669Z,98938.00
2023-03-24T08:04:33.490Z,98940.00
2023-03-24T08:07:00.562Z,98935.00
2023-03-24T08:09:27.846Z,98914.00
2023-03-24T08:11:54.704Z,98936.00
2023-03-24T08:14:21.732Z,98948.00
2023-03-24T08:16:48.896Z,98941.00
2023-03-24T08:19:16.107Z,98945.00
2023-03-24T08:21:42.998Z,98943.00
2023-03-24T08:24:09.816Z,98940.00
2023-03-24T08:26:36.714Z,98931.00
2023-03-24T08:29:03.976Z,98929.00
2023-03-24T08:31:36.804Z,98929.00
2023-03-24T08:34:06.534Z,98926.00
2023-03-24T08:36:33.557Z,98928.00
2023-03-24T08:39:01.376Z,98920.00
2023-03-24T08:41:34.873Z,98919.00
2023-03-24T08:44:05.613Z,98915.00
2023-03-24T08:46:34.426Z,98902.00
2023-03-24T08:49:02.549Z,98893.00
2023-03-24T08:51:30.165Z,98880.00
2023-03-24T08:53:57.124Z,98882.00
2023-03-24T08:56:24.489Z,98850.00
2023-03-24T08:58:53.786Z,98851.00
2023-03-24T09:01:22.813Z,98851.00
2023-03-24T09:03:50.506Z,98839.00
2023-03-24T09:06:17.897Z,98834.00
2023-03-24T09:08:46.045Z,98803.00
2023-03-24T09:11:20.333Z,98826.00
2023-03-24T09:13:48.693Z,98806.00
2023-03-24T09:16:16.886Z,98817.00
2023-03-24T09:18:44.693Z,98814.00
2023-03-24T09:21:11.890Z,98810.00
2023-03-24T09:23:38.928Z,98802.00
2023-03-24T09:26:07.419Z,98806.00
2023-03-24T09:28:35.014Z,98808.00
2023-03-24T09:31:05.742Z,98806.00
2023-03-24T09:33:34.889Z,98809.00
2023-03-24T09:36:04.292Z,98808.00
2023-03-24T09:38:31.536Z,98811.00
2023-03-24T09:41:03.456Z,98799.00
2023-03-24T09:43:44.785Z,98793.00
2023-03-24T09:46:35.325Z,98786.00
2023-03-24T09:49:04.710Z,98791.00
2023-03-24T09:51:40.838Z,98712.00
2023-03-24T09:54:40.749Z,98791.00
2023-03-24T09:57:23.709Z,98783.00
2023-03-24T09:59:50.845Z,98787.00
2023-03-24T10:02:21.485Z,98772.00
2023-03-24T10:04:49.962Z,98768.00
2023-03-24T10:07:28.187Z,98777.00
2023-03-24T10:10:00.885Z,98758.00
2023-03-24T10:12:48.462Z,98742.00
2023-03-24T10:15:51.113Z,98738.00
2023-03-24T10:18:40.002Z,98726.00
2023-03-24T10:21:22.687Z,98744.00
2023-03-24T10:24:32.270Z,98763.00
2023-03-24T10:27:23.006Z,98744.00
2023-03-24T10:29:59.017Z,98745.00
2023-03-24T10:32:32.216Z,98735.00
2023-03-24T10:35:09.968Z,98731.00
2023-03-24T10:37:37.435Z,98731.00
2023-03-24T10:40:18.000Z,98728.00
2023-03-24T10:42:48.861Z,98725.00
2023-03-24T10:45:30.579Z,98731.00
2023-03-24T10:48:01.641Z,98727.00
2023-03-24T10:50:31.800Z,98737.00
2023-03-24T10:52:58.797Z,98730.00
2023-03-24T10:55:43.363Z,98738.00
2023-03-24T10:58:39.789Z,98736.00
2023-03-24T11:01:30.248Z,98741.00
2023-03-24T11:04:05.503Z,98727.00
2023-03-24T11:06:33.905Z,98728.00
2023-03-24T11:09:23.738Z,98739.00
2023-03-24T11:11:52.543Z,98733.00
2023-03-24T11:14:28.827Z,98727.00
2023-03-24T11:17:15.944Z,98722.00
2023-03-24T11:19:57.436Z,98717.00
2023-03-24T11:22:26.072Z,98712.00
2023-03-24T11:24:56.887Z,98714.00
2023-03-24T11:27:23.934Z,98717.00
2023-03-24T11:29:54.679Z,98724.00
2023-03-24T11:32:28.110Z,98724.00
2023-03-24T11:35:17.616Z,98724.00
2023-03-24T11:37:47.497Z,98722.00
2023-03-24T11:40:52.244Z,98714.00
2023-03-24T11:43:22.489Z,98711.00
2023-03-24T11:46:10.429Z,98711.00
2023-03-24T11:48:52.548Z,98705.00
2023-03-24T11:51:34.494Z,98687.00
2023-03-24T11:54:08.081Z,98704.00
2023-03-24T11:57:08.005Z,98695.00
2023-03-24T11:59:58.573Z,98689.00
2023-03-24T12:03:31.196Z,98699.00
2023-03-24T12:06:20.239Z,98695.00
2023-03-24T12:08:59.173Z,98705.00
2023-03-24T12:11:59.726Z,98697.00
2023-03-24T12:14:49.429Z,98698.00
2023-03-24T12:17:26.056Z,98695.00
2023-03-24T12:20:23.723Z,98684.00
2023-03-24T12:23:20.277Z,98694.00
2023-03-24T12:26:07.493Z,98693.00
2023-03-24T12:29:20.367Z,98691.00
2023-03-24T12:32:16.374Z,98694.00
2023-03-24T12:35:20.975Z,98696.00
2023-03-24T12:38:40.568Z,98689.00
2023-03-24T12:41:20.245Z,98695.00
2023-03-24T12:44:00.829Z,98694.00
2023-03-24T12:46:49.868Z,98698.00
2023-03-24T12:49:42.479Z,98697.00
2023-03-24T12:52:24.422Z,98686.00
2023-03-24T12:55:10.439Z,98685.00
2023-03-24T12:57:50.169Z,98668.00
2023-03-24T13:00:37.958Z,98673.00
2023-03-24T13:03:14.693Z,98649.00
2023-03-24T13:05:52.988Z,98664.00
2023-03-24T13:08:29.292Z,98648.00
2023-03-24T13:11:08.063Z,98666.00
2023-03-24T13:13:43.936Z,98656.00
2023-03-24T13:16:19.190Z,98662.00
2023-03-24T13:18:54.660Z,98662.00
2023-03-24T13:21:25.972Z,98661.00
2023-03-24T13:24:14.848Z,98660.00
2023-03-24T13:27:11.724Z,98662.00
2023-03-24T13:30:02.146Z,98654.00
2023-03-24T13:32:44.187Z,98642.00
2023-03-24T13:35:29.080Z,98647.00
2023-03-24T13:38:26.351Z,98646.00
2023-03-24T13:40:56.280Z,98640.00
2023-03-24T13:43:30.256Z,98650.00
2023-03-24T13:46:09.148Z,98647.00
2023-03-24T13:48:43.590Z,98644.00
2023-03-24T13:51:27.034Z,98637.00
2023-03-24T13:54:05.984Z,98643.00
2023-03-24T13:56:41.241Z,98649.00
2023-03-24T13:59:29.771Z,98656.00
2023-03-24T14:02:29.392Z,98651.00
2023-03-24T14:05:06.779Z,98652.00
2023-03-24T14:07:39.689Z,98649.00
2023-03-24T14:10:15.500Z,98655.00
2023-03-24T14:12:59.113Z,98647.00
2023-03-24T14:15:45.356Z,98655.00
2023-03-24T14:18:39.722Z,98644.00
2023-03-24T14:21:10.862Z,98619.00
2023-03-24T14:23:52.476Z,98653.00
2023-03-24T14:26:23.242Z,98644.00
2023-03-24T14:28:58.202Z,98643.00
2023-03-24T14:31:36.244Z,98654.00
2023-03-24T14:34:21.292Z,98656.00
2023-03-24T14:37:00.488Z,98653.00
2023-03-24T14:39:47.124Z,98656.00
2023-03-24T14:42:31.743Z,98664.00
2023-03-24T14:45:33.187Z,98660.00
2023-03-24T14:48:03.519Z,98664.00
2023-03-24T14:50:33.718Z,98653.00
2023-03-24T14:53:04.268Z,98656.00
2023-03-24T14:55:31.743Z,98651.00
2023-03-24T14:58:11.693Z,98650.00
2023-03-24T15:00:57.944Z,98642.00
2023-03-24T15:04:04.987Z,98644.00
2023-03-24T15:06:31.983Z,98647.00
2023-03-24T15:09:07.285Z,98623.00
2023-03-24T15:11:38.189Z,98659.00
2023-03-24T15:14:07.171Z,98647.00
2023-03-24T15:16:38.008Z,98653.00
2023-03-24T15:19:27.704Z,98650.00
2023-03-24T15:22:21.566Z,98636.00
2023-03-24T15:24:52.055Z,98655.00
2023-03-24T15:27:29.978Z,98651.00
2023-03-24T15:29:59.996Z,98655.00
2023-03-24T15:32:32.911Z,98668.00
2023-03-24T15:35:05.712Z,98672.00
2023-03-24T15:37:43.076Z,98670.00
2023-03-24T15:40:30.364Z,98668.00
2023-03-24T15:43:02.307Z,98676.00
2023-03-24T15:45:43.819Z,98667.00
2023-03-24T15:48:23.212Z,98668.00
2023-03-24T15:51:03.310Z,98669.00
2023-03-24T15:53:59.114Z,98666.00
2023-03-24T15:56:32.062Z,98661.00
2023-03-24T15:59:11.755Z,98665.00
2023-03-24T16:01:43.172Z,98667.00
2023-03-24T16:04:15.766Z,98663.00
2023-03-24T16:06:51.601Z,98665.00
2023-03-24T16:09:22.388Z,98668.00
2023-03-24T16:11:49.798Z,98669.00
2023-03-24T16:14:32.409Z,98674.00
2023-03-24T16:17:03.121Z,98677.00
2023-03-24T16:19:30.654Z,98678.00
2023-03-24T16:21:57.873Z,98679.00
2023-03-24T16:24:24.814Z,98681.00
2023-03-24T16:26:51.887Z,98671.00
2023-03-24T16:29:24.060Z,98644.00
2023-03-24T16:31:55.346Z,98670.00
2023-03-24T16:34:23.412Z,98668.00
2023-03-24T16:36:53.304Z,98665.00
2023-03-24T16:39:26.478Z,98670.00
2023-03-24T16:41:53.427Z,98672.00
2023-03-24T16:44:21.486Z,98682.00
2023-03-24T16:46:51.838Z,98694.00
2023-03-24T16:49:20.421Z,98720.00
2023-03-24T16:51:49.955Z,98721.00
2023-03-24T16:54:16.870Z,98715.00
2023-03-24T16:56:43.841Z,98718.00
2023-03-24T16:59:14.827Z,98713.00
2023-03-24T17:01:45.962Z,98714.00
2023-03-24T17:04:20.592Z,98732.00
2023-03-24T17:06:52.866Z,98753.00
2023-03-24T17:09:21.680Z,98751.00
2023-03-24T17:11:53.320Z,98753.00
2023-03-24T17:14:20.341Z,98761.00
2023-03-24T17:16:50.604Z,98758.00
2023-03-24T17:19:21.771Z,98773.00
2023-03-24T17:22:07.045Z,98771.00
2023-03-24T17:24:36.681Z,98779.00
2023-03-24T17:27:11.135Z,98774.00
2023-03-24T17:29:38.074Z,98773.00
2023-03-24T17:32:05.351Z,98780.00
2023-03-24T17:34:32.178Z,98778.00
2023-03-24T17:36:59.059Z,98791.00
2023-03-24T17:39:25.978Z,98781.00
2023-03-24T17:41:57.546Z,98775.00
2023-03-24T17:44:24.527Z,98775.00
2023-03-24T17:46:51.625Z,98772.00
2023-03-24T17:49:19.175Z,98769.00
2023-03-24T17:51:46.383Z,98762.00
2023-03-24T17:54:13.755Z,98780.00
2023-03-24T17:56:40.736Z,98764.00
2023-03-24T17:59:08.211Z,98753.00
2023-03-24T18:01:39.178Z,98771.00
2023-03-24T18:04:07.155Z,98763.00
2023-03-24T18:06:34.562Z,98764.00
2023-03-24T18:09:01.521Z,98719.00
2023-03-24T18:11:28.494Z,98739.00
2023-03-24T18:13:55.692Z,98773.00
2023-03-24T18:16:23.017Z,98774.00
2023-03-24T18:18:51.140Z,98786.00
2023-03-24T18:21:18.975Z,98798.00
2023-03-24T18:23:46.785Z,98796.00
2023-03-24T18:26:15.022Z,98803.00
2023-03-24T18:28:42.746Z,98817.00
2023-03-24T18:31:21.708Z,98808.00
2023-03-24T18:33:53.848Z,98822.00
2023-03-24T18:36:26.338Z,98813.00
2023-03-24T18:39:07.144Z,98794.00
2023-03-24T18:41:39.354Z,98794.00
2023-03-24T18:44:13.139Z,98800.00
2023-03-24T18:46:40.382Z,98806.00
2023-03-24T18:49:07.970Z,98813.00
2023-03-24T18:51:35.839Z,98821.00
2023-03-24T18:54:02.958Z,98832.00
2023-03-24T18:56:29.983Z,98817.00
2023-03-24T18:58:56.895Z,98827.00
2023-03-24T19:01:24.101Z,98817.00
2023-03-24T19:03:52.936Z,98826.00
2023-03-24T19:06:21.917Z,98825.00
2023-03-24T19:08:53.047Z,98822.00
2023-03-24T19:11:23.018Z,98820.00
2023-03-24T19:13:50.774Z,98816.00
2023-03-24T19:16:19.470Z,98818.00
2023-03-24T19:18:48.417Z,98822.00
2023-03-24T19:21:19.171Z,98825.00
2023-03-24T19:23:46.739Z,98823.00
2023-03-24T19:26:20.169Z,98815.00
2023-03-24T19:28:50.457Z,98812.00
2023-03-24T19:31:19.978Z,98809.00
2023-03-24T19:33:47.837Z,98817.00
2023-03-24T19:36:15.912Z,98821.00
2023-03-24T19:38:42.845Z,98803.00
2023-03-24T19:41:13.152Z,98812.00
2023-03-24T19:43:40.450Z,98816.00
2023-03-24T19:46:08.403Z,98826.00
2023-03-24T19:48:35.867Z,98828.00
2023-03-24T19:51:03.609Z,98831.00
2023-03-24T19:53:30.810Z,98834.00
2023-03-24T19:55:59.136Z,98837.00
2023-03-24T19:58:26.314Z,98842.00
2023-03-24T20:00:53.670Z,98844.00
2023-03-24T20:03:20.890Z,98840.00
2023-03-24T20:05:48.781Z,98836.00
2023-03-24T20:08:16.598Z,98853.00
2023-03-24T20:10:43.553Z,98851.00
2023-03-24T20:13:10.586Z,98841.00
2023-03-24T20:15:37.787Z,98854.00
2023-03-24T20:18:05.075Z,98856.00
2023-03-24T20:20:32.359Z,98859.00
2023-03-24T20:22:59.269Z,98859.00
2023-03-24T20:25:27.362Z,98858.00
2023-03-24T20:27:54.338Z,98864.00
2023-03-24T20:30:21.436Z,98856.00
2023-03-24T20:32:48.527Z,98850.00
2023-03-24T20:35:15.986Z,98858.00
2023-03-24T20:37:43.099Z,98855.00
2023-03-24T20:40:10.781Z,98841.00
2023-03-24T20:42:38.468Z,98812.00
2023-03-24T20:45:08.204Z,98840.00
2023-03-24T20:47:36.587Z,98845.00
2023-03-24T20:50:05.990Z,98850.00
2023-03-24T20:52:33.194Z,98852.00
2023-03-24T20:55:06.247Z,98861.00
2023-03-24T20:57:33.995Z,98855.00
2023-03-24T21:00:01.120Z,98846.00
2023-03-24T21:02:28.492Z,98850.00
2023-03-24T21:04:55.624Z,98854.00
2023-03-24T21:07:22.574Z,98854.00
2023-03-24T21:09:49.481Z,98861.00
2023-03-24T21:12:16.376Z,98859.00
2023-03-24T21:14:46.683Z,98855.00
2023-03-24T21:17:13.997Z,98857.00
2023-03-24T21:19:46.759Z,98870.00
2023-03-24T21:22:17.515Z,98865.00
2023-03-24T21:24:44.507Z,98874.00
2023-03-24T21:27:11.457Z,98885.00
2023-03-24T21:29:38.360Z,98879.00
2023-03-24T21:32:05.373Z,98887.00
2023-03-24T21:34:32.322Z,98882.00
2023-03-24T21:37:01.619Z,98873.00
2023-03-24T21:39:29.038Z,98874.00
2023-03-24T21:41:55.950Z,98880.00
2023-03-24T21:44:23.333Z,98860.00
2023-03-24T21:46:50.288Z,98860.00
2023-03-24T21:49:18.854Z,98864.00
2023-03-24T21:51:46.751Z,98855.00
2023-03-24T21:54:14.909Z,98825.00
2023-03-24T21:56:42.295Z,98852.00
2023-03-24T21:59:11.133Z,98851.00
2023-03-24T22:01:38.202Z,98847.00
2023-03-24T22:04:08.831Z,98852.00
2023-03-24T22:06:38.595Z,98822.00
2023-03-24T22:09:08.148Z,98855.00
2023-03-24T22:11:36.651Z,98855.00
2023-03-24T22:14:03.985Z,98857.00
2023-03-24T22:16:30.990Z,98869.00
2023-03-24T22:18:58.626Z,98875.00
2023-03-24T22:21:25.717Z,98879.00
2023-03-24T22:23:52.629Z,98884.00
2023-03-24T22:26:19.521Z,98877.00
2023-03-24T22:28:46.368Z,98876.00
2023-03-24T22:31:22.935Z,98879.00
2023-03-24T22:33:50.335Z,98880.00
2023-03-24T22:36:17.648Z,98870.00
2023-03-24T22:38:44.613Z,98876.00
2023-03-24T22:41:14.179Z,98884.00
2023-03-24T22:43:41.741Z,98889.00
2023-03-24T22:46:10.769Z,98884.00
2023-03-24T22:48:40.698Z,98893.00
2023-03-24T22:51:08.829Z,98886.00
2023-03-24T22:53:36.103Z,98887.00
2023-03-24T22:56:03.583Z,98883.00
2023-03-24T22:58:31.766Z,98886.00
2023-03-24T23:00:58.688Z,98890.00
2023-03-24T23:03:25.566Z,98893.00
2023-03-24T23:05:52.755Z,98895.00
2023-03-24T23:08:19.855Z,98876.00
2023-03-24T23:10:47.586Z,98901.00
2023-03-24T23:13:16.783Z,98902.00
2023-03-24T23:15:43.877Z,98903.00
2023-03-24T23:18:11.882Z,98897.00
2023-03-24T23:20:39.626Z,98893.00
2023-03-24T23:23:07.245Z,98908.00
2023-03-24T23:25:43.573Z,98910.00
2023-03-24T23:28:12.786Z,98912.00
2023-03-24T23:30:40.414Z,98915.00
2023-03-24T23:33:07.781Z,98912.00
2023-03-24T23:35:35.848Z,98914.00
2023-03-24T23:38:02.965Z,98933.00
2023-03-24T23:40:29.802Z,98923.00
2023-03-24T23:42:56.802Z,98918.00
2023-03-24T23:45:23.661Z,98916.00
2023-03-24T23:47:51.664Z,98916.00
2023-03-24T23:50:20.500Z,98912.00
2023-03-24T23:52:48.166Z,98907.00
2023-03-24T23:55:17.842Z,98903.00
2023-03-24T23:57:46.925Z,98905.00
